sensor_id;sensor_type;location;lat;lon;timestamp;pressure;altitude;pressure_sealevel;temperature;humidity
28911;BME280;16028;42.642;23.310;2023-07-13T00:02:06;94277.72;;;22.26;70.66
28911;BME280;16028;42.642;23.310;2023-07-13T00:04:34;94269.16;;;22.24;69.22
28911;BME280;16028;42.642;23.310;2023-07-13T00:07:07;94262.25;;;22.23;69.54
28911;BME280;16028;42.642;23.310;2023-07-13T00:09:40;94265.31;;;22.20;69.82
28911;BME280;16028;42.642;23.310;2023-07-13T00:12:22;94260.44;;;22.17;69.94
28911;BME280;16028;42.642;23.310;2023-07-13T00:14:51;94267.78;;;22.14;70.93
28911;BME280;16028;42.642;23.310;2023-07-13T00:17:18;94252.31;;;22.05;72.08
28911;BME280;16028;42.642;23.310;2023-07-13T00:19:45;94249.09;;;22.03;72.58
28911;BME280;16028;42.642;23.310;2023-07-13T00:22:17;94246.03;;;21.99;72.43
28911;BME280;16028;42.642;23.310;2023-07-13T00:24:52;94262.13;;;22.04;71.69
28911;BME280;16028;42.642;23.310;2023-07-13T00:27:22;94256.88;;;21.98;72.19
28911;BME280;16028;42.642;23.310;2023-07-13T00:29:55;94256.44;;;22.01;72.73
28911;BME280;16028;42.642;23.310;2023-07-13T00:32:22;94249.34;;;21.95;71.50
28911;BME280;16028;42.642;23.310;2023-07-13T00:34:50;94257.72;;;21.85;71.97
28911;BME280;16028;42.642;23.310;2023-07-13T00:37:17;94256.25;;;21.83;72.35
28911;BME280;16028;42.642;23.310;2023-07-13T00:40:18;94245.50;;;21.78;72.57
28911;BME280;16028;42.642;23.310;2023-07-13T00:43:54;94249.38;;;21.82;73.44
28911;BME280;16028;42.642;23.310;2023-07-13T00:46:28;94258.34;;;21.74;71.89
28911;BME280;16028;42.642;23.310;2023-07-13T00:49:27;94255.09;;;21.72;72.81
28911;BME280;16028;42.642;23.310;2023-07-13T00:55:31;94253.25;;;21.79;73.03
28911;BME280;16028;42.642;23.310;2023-07-13T00:58:07;94256.72;;;21.73;72.85
28911;BME280;16028;42.642;23.310;2023-07-13T01:00:49;94250.84;;;21.64;72.81
28911;BME280;16028;42.642;23.310;2023-07-13T01:06:32;94241.25;;;21.63;71.09
28911;BME280;16028;42.642;23.310;2023-07-13T01:09:31;94240.84;;;21.67;71.54
28911;BME280;16028;42.642;23.310;2023-07-13T01:12:29;94237.41;;;21.66;71.86
28911;BME280;16028;42.642;23.310;2023-07-13T01:14:59;94237.81;;;21.70;73.40
28911;BME280;16028;42.642;23.310;2023-07-13T01:17:28;94244.50;;;21.72;74.71
28911;BME280;16028;42.642;23.310;2023-07-13T01:19:57;94248.78;;;21.67;74.68
28911;BME280;16028;42.642;23.310;2023-07-13T01:22:25;94240.28;;;21.58;74.82
28911;BME280;16028;42.642;23.310;2023-07-13T01:24:55;94235.63;;;21.47;73.73
28911;BME280;16028;42.642;23.310;2023-07-13T01:27:23;94237.88;;;21.43;73.79
28911;BME280;16028;42.642;23.310;2023-07-13T01:29:52;94237.25;;;21.41;74.29
28911;BME280;16028;42.642;23.310;2023-07-13T01:32:27;94238.72;;;21.37;74.58
28911;BME280;16028;42.642;23.310;2023-07-13T01:34:59;94242.19;;;21.38;72.88
28911;BME280;16028;42.642;23.310;2023-07-13T01:37:28;94242.19;;;21.38;73.68
28911;BME280;16028;42.642;23.310;2023-07-13T01:40:05;94236.47;;;21.41;75.23
28911;BME280;16028;42.642;23.310;2023-07-13T01:42:33;94240.72;;;21.42;76.39
28911;BME280;16028;42.642;23.310;2023-07-13T01:45:12;94240.13;;;21.40;74.72
28911;BME280;16028;42.642;23.310;2023-07-13T01:51:00;94224.69;;;21.30;75.67
28911;BME280;16028;42.642;23.310;2023-07-13T01:54:28;94235.88;;;21.26;74.61
28911;BME280;16028;42.642;23.310;2023-07-13T01:57:10;94228.75;;;21.26;74.49
28911;BME280;16028;42.642;23.310;2023-07-13T01:59:41;94239.72;;;21.36;73.35
28911;BME280;16028;42.642;23.310;2023-07-13T02:02:10;94230.97;;;21.36;74.01
28911;BME280;16028;42.642;23.310;2023-07-13T02:04:37;94235.44;;;21.42;72.90
28911;BME280;16028;42.642;23.310;2023-07-13T02:07:07;94249.72;;;21.41;73.58
28911;BME280;16028;42.642;23.310;2023-07-13T02:09:38;94243.78;;;21.39;73.60
28911;BME280;16028;42.642;23.310;2023-07-13T02:12:06;94246.66;;;21.44;74.69
28911;BME280;16028;42.642;23.310;2023-07-13T02:14:33;94243.38;;;21.35;75.17
28911;BME280;16028;42.642;23.310;2023-07-13T02:17:04;94250.91;;;21.32;76.08
28911;BME280;16028;42.642;23.310;2023-07-13T02:19:30;94246.28;;;21.27;76.66
28911;BME280;16028;42.642;23.310;2023-07-13T02:22:00;94249.31;;;21.31;77.21
28911;BME280;16028;42.642;23.310;2023-07-13T02:24:27;94239.56;;;21.25;77.31
28911;BME280;16028;42.642;23.310;2023-07-13T02:26:55;94252.16;;;21.29;74.94
28911;BME280;16028;42.642;23.310;2023-07-13T02:29:22;94255.22;;;21.20;75.19
28911;BME280;16028;42.642;23.310;2023-07-13T02:31:49;94255.63;;;21.17;75.34
28911;BME280;16028;42.642;23.310;2023-07-13T02:34:16;94262.16;;;21.14;75.87
28911;BME280;16028;42.642;23.310;2023-07-13T02:36:43;94260.94;;;21.17;77.22
28911;BME280;16028;42.642;23.310;2023-07-13T02:39:11;94247.50;;;21.05;76.78
28911;BME280;16028;42.642;23.310;2023-07-13T02:41:38;94258.91;;;21.12;75.40
28911;BME280;16028;42.642;23.310;2023-07-13T02:44:07;94258.91;;;21.05;75.60
28911;BME280;16028;42.642;23.310;2023-07-13T02:46:36;94253.38;;;21.00;76.40
28911;BME280;16028;42.642;23.310;2023-07-13T02:49:06;94245.44;;;21.00;78.16
28911;BME280;16028;42.642;23.310;2023-07-13T02:51:32;94244.84;;;20.98;78.95
28911;BME280;16028;42.642;23.310;2023-07-13T02:54:00;94250.56;;;20.95;81.57
28911;BME280;16028;42.642;23.310;2023-07-13T02:56:29;94250.16;;;20.85;78.45
28911;BME280;16028;42.642;23.310;2023-07-13T02:58:56;94256.44;;;20.91;78.31
28911;BME280;16028;42.642;23.310;2023-07-13T03:01:25;94247.50;;;20.85;78.77
28911;BME280;16028;42.642;23.310;2023-07-13T03:03:55;94244.03;;;20.85;79.24
28911;BME280;16028;42.642;23.310;2023-07-13T03:06:22;94257.25;;;20.91;80.66
28911;BME280;16028;42.642;23.310;2023-07-13T03:08:50;94252.56;;;20.87;80.65
28911;BME280;16028;42.642;23.310;2023-07-13T03:11:21;94260.13;;;20.90;79.96
28911;BME280;16028;42.642;23.310;2023-07-13T03:13:49;94261.94;;;20.96;81.04
28911;BME280;16028;42.642;23.310;2023-07-13T03:16:16;94267.25;;;20.89;80.34
28911;BME280;16028;42.642;23.310;2023-07-13T03:18:47;94265.19;;;20.91;79.65
28911;BME280;16028;42.642;23.310;2023-07-13T03:21:14;94267.44;;;20.88;77.72
28911;BME280;16028;42.642;23.310;2023-07-13T03:23:41;94267.44;;;20.94;78.59
28911;BME280;16028;42.642;23.310;2023-07-13T03:26:09;94270.28;;;20.86;79.77
28911;BME280;16028;42.642;23.310;2023-07-13T03:28:38;94262.13;;;20.81;80.74
28911;BME280;16028;42.642;23.310;2023-07-13T03:31:08;94272.13;;;20.79;81.46
28911;BME280;16028;42.642;23.310;2023-07-13T03:33:39;94277.00;;;20.82;82.57
28911;BME280;16028;42.642;23.310;2023-07-13T03:36:19;94273.75;;;20.80;83.03
28911;BME280;16028;42.642;23.310;2023-07-13T03:38:50;94267.25;;;20.76;84.02
28911;BME280;16028;42.642;23.310;2023-07-13T03:41:21;94276.00;;;20.83;86.07
28911;BME280;16028;42.642;23.310;2023-07-13T03:44:00;94273.13;;;20.78;85.60
28911;BME280;16028;42.642;23.310;2023-07-13T03:46:28;94273.13;;;20.78;85.60
28911;BME280;16028;42.642;23.310;2023-07-13T03:48:56;94272.13;;;20.79;87.14
28911;BME280;16028;42.642;23.310;2023-07-13T03:51:27;94261.31;;;20.74;87.00
28911;BME280;16028;42.642;23.310;2023-07-13T03:53:59;94266.19;;;20.77;86.90
28911;BME280;16028;42.642;23.310;2023-07-13T03:56:31;94264.19;;;20.79;87.37
28911;BME280;16028;42.642;23.310;2023-07-13T03:59:03;94263.97;;;20.81;87.58
28911;BME280;16028;42.642;23.310;2023-07-13T04:01:30;94265.78;;;20.87;88.23
28911;BME280;16028;42.642;23.310;2023-07-13T04:04:00;94259.72;;;20.93;88.84
28911;BME280;16028;42.642;23.310;2023-07-13T04:06:31;94267.84;;;20.98;89.45
28911;BME280;16028;42.642;23.310;2023-07-13T04:09:22;94254.03;;;20.96;90.59
28911;BME280;16028;42.642;23.310;2023-07-13T04:11:54;94260.91;;;21.03;89.37
28911;BME280;16028;42.642;23.310;2023-07-13T04:14:24;94262.97;;;21.01;88.43
28911;BME280;16028;42.642;23.310;2023-07-13T04:17:00;94258.69;;;21.07;88.59
28911;BME280;16028;42.642;23.310;2023-07-13T04:19:54;94262.16;;;21.21;89.29
28911;BME280;16028;42.642;23.310;2023-07-13T04:22:30;94258.91;;;21.19;90.38
28911;BME280;16028;42.642;23.310;2023-07-13T04:25:05;94267.44;;;21.27;89.58
28911;BME280;16028;42.642;23.310;2023-07-13T04:27:32;94264.56;;;21.35;91.25
28911;BME280;16028;42.642;23.310;2023-07-13T04:30:10;94274.31;;;21.41;87.57
28911;BME280;16028;42.642;23.310;2023-07-13T04:32:42;94281.75;;;21.77;85.50
28911;BME280;16028;42.642;23.310;2023-07-13T04:35:14;94288.78;;;22.16;80.79
28911;BME280;16028;42.642;23.310;2023-07-13T04:37:45;94282.63;;;22.22;79.85
28911;BME280;16028;42.642;23.310;2023-07-13T04:40:13;94287.88;;;22.29;79.67
28911;BME280;16028;42.642;23.310;2023-07-13T04:42:41;94290.78;;;22.27;81.15
28911;BME280;16028;42.642;23.310;2023-07-13T04:45:12;94291.38;;;22.29;82.55
28911;BME280;16028;42.642;23.310;2023-07-13T04:47:42;94293.81;;;22.24;80.06
28911;BME280;16028;42.642;23.310;2023-07-13T04:50:09;94294.00;;;22.29;78.87
28911;BME280;16028;42.642;23.310;2023-07-13T04:52:37;94303.75;;;22.35;78.37
28911;BME280;16028;42.642;23.310;2023-07-13T04:55:06;94296.00;;;22.34;77.38
28911;BME280;16028;42.642;23.310;2023-07-13T04:57:33;94299.44;;;22.41;78.20
28911;BME280;16028;42.642;23.310;2023-07-13T05:00:00;94302.28;;;22.46;78.11
28911;BME280;16028;42.642;23.310;2023-07-13T05:02:30;94305.13;;;22.44;78.70
28911;BME280;16028;42.642;23.310;2023-07-13T05:04:58;94296.25;;;22.70;81.14
28911;BME280;16028;42.642;23.310;2023-07-13T05:07:24;94306.53;;;23.41;75.62
28911;BME280;16028;42.642;23.310;2023-07-13T05:09:52;94309.00;;;23.60;75.29
28911;BME280;16028;42.642;23.310;2023-07-13T05:12:20;94304.44;;;23.67;73.05
28911;BME280;16028;42.642;23.310;2023-07-13T05:14:47;94303.81;;;23.65;73.95
28911;BME280;16028;42.642;23.310;2023-07-13T05:17:14;94310.25;;;23.58;74.88
28911;BME280;16028;42.642;23.310;2023-07-13T05:19:41;94320.06;;;23.76;72.21
28911;BME280;16028;42.642;23.310;2023-07-13T05:22:08;94322.22;;;24.03;71.31
28911;BME280;16028;42.642;23.310;2023-07-13T05:24:35;94322.38;;;24.08;72.78
28911;BME280;16028;42.642;23.310;2023-07-13T05:27:02;94314.13;;;24.16;72.32
28911;BME280;16028;42.642;23.310;2023-07-13T05:29:30;94318.41;;;24.17;73.57
28911;BME280;16028;42.642;23.310;2023-07-13T05:31:57;94321.53;;;24.14;69.56
28911;BME280;16028;42.642;23.310;2023-07-13T05:34:24;94326.56;;;23.98;69.54
28911;BME280;16028;42.642;23.310;2023-07-13T05:36:52;94325.91;;;23.84;69.51
28911;BME280;16028;42.642;23.310;2023-07-13T05:39:19;94326.47;;;23.68;70.35
28911;BME280;16028;42.642;23.310;2023-07-13T05:41:47;94318.22;;;23.58;71.21
28911;BME280;16028;42.642;23.310;2023-07-13T05:44:13;94322.34;;;23.54;71.13
28911;BME280;16028;42.642;23.310;2023-07-13T05:46:42;94318.63;;;23.55;72.11
28911;BME280;16028;42.642;23.310;2023-07-13T05:49:09;94329.38;;;23.66;70.74
28911;BME280;16028;42.642;23.310;2023-07-13T05:51:37;94322.94;;;23.74;69.19
28911;BME280;16028;42.642;23.310;2023-07-13T05:54:08;94327.09;;;23.88;68.14
28911;BME280;16028;42.642;23.310;2023-07-13T05:56:37;94322.97;;;23.92;67.80
28911;BME280;16028;42.642;23.310;2023-07-13T05:59:05;94329.09;;;23.93;68.63
28911;BME280;16028;42.642;23.310;2023-07-13T06:01:32;94320.91;;;24.60;69.50
28911;BME280;16028;42.642;23.310;2023-07-13T06:04:01;94320.81;;;24.67;68.15
28911;BME280;16028;42.642;23.310;2023-07-13T06:06:28;94306.75;;;24.78;69.97
28911;BME280;16028;42.642;23.310;2023-07-13T06:08:54;94295.34;;;24.89;70.51
28911;BME280;16028;42.642;23.310;2023-07-13T06:11:23;94309.16;;;24.98;68.79
28911;BME280;16028;42.642;23.310;2023-07-13T06:13:50;94305.84;;;25.14;65.89
28911;BME280;16028;42.642;23.310;2023-07-13T06:16:18;94303.28;;;25.31;65.39
28911;BME280;16028;42.642;23.310;2023-07-13T06:18:45;94322.00;;;25.65;66.85
28911;BME280;16028;42.642;23.310;2023-07-13T06:21:15;94320.47;;;26.16;63.78
28911;BME280;16028;42.642;23.310;2023-07-13T06:23:43;94326.38;;;26.58;63.93
28911;BME280;16028;42.642;23.310;2023-07-13T06:26:10;94330.59;;;26.82;61.86
28911;BME280;16028;42.642;23.310;2023-07-13T06:28:37;94323.72;;;26.86;59.40
28911;BME280;16028;42.642;23.310;2023-07-13T06:31:06;94317.44;;;27.09;60.02
28911;BME280;16028;42.642;23.310;2023-07-13T06:33:33;94320.13;;;27.09;59.83
28911;BME280;16028;42.642;23.310;2023-07-13T06:36:01;94323.84;;;27.24;57.40
28911;BME280;16028;42.642;23.310;2023-07-13T06:38:30;94317.63;;;27.69;56.55
28911;BME280;16028;42.642;23.310;2023-07-13T06:40:57;94322.59;;;27.99;56.00
28911;BME280;16028;42.642;23.310;2023-07-13T06:43:24;94308.81;;;28.07;55.80
28911;BME280;16028;42.642;23.310;2023-07-13T06:45:54;94307.03;;;28.12;56.42
28911;BME280;16028;42.642;23.310;2023-07-13T06:48:21;94305.34;;;28.28;58.51
28911;BME280;16028;42.642;23.310;2023-07-13T06:50:49;94313.94;;;28.52;51.07
28911;BME280;16028;42.642;23.310;2023-07-13T06:53:18;94305.03;;;28.46;53.91
28911;BME280;16028;42.642;23.310;2023-07-13T06:55:47;94300.50;;;28.25;55.14
28911;BME280;16028;42.642;23.310;2023-07-13T06:58:16;94309.47;;;28.35;54.08
28911;BME280;16028;42.642;23.310;2023-07-13T07:00:43;94304.34;;;28.56;55.34
28911;BME280;16028;42.642;23.310;2023-07-13T07:03:10;94305.59;;;28.70;55.55
28911;BME280;16028;42.642;23.310;2023-07-13T07:05:37;94310.28;;;28.63;54.79
28911;BME280;16028;42.642;23.310;2023-07-13T07:08:04;94313.31;;;28.45;54.53
28911;BME280;16028;42.642;23.310;2023-07-13T07:10:31;94315.53;;;28.53;53.50
28911;BME280;16028;42.642;23.310;2023-07-13T07:12:59;94312.75;;;28.64;52.43
28911;BME280;16028;42.642;23.310;2023-07-13T07:15:27;94301.66;;;28.77;52.85
28911;BME280;16028;42.642;23.310;2023-07-13T07:17:54;94309.31;;;28.91;53.42
28911;BME280;16028;42.642;23.310;2023-07-13T07:20:21;94317.56;;;28.89;52.18
28911;BME280;16028;42.642;23.310;2023-07-13T07:22:48;94320.72;;;28.81;51.66
28911;BME280;16028;42.642;23.310;2023-07-13T07:25:16;94311.03;;;28.75;53.49
28911;BME280;16028;42.642;23.310;2023-07-13T07:27:44;94305.78;;;28.42;52.32
28911;BME280;16028;42.642;23.310;2023-07-13T07:30:15;94304.03;;;28.30;51.87
28911;BME280;16028;42.642;23.310;2023-07-13T07:32:42;94301.34;;;28.30;53.55
28911;BME280;16028;42.642;23.310;2023-07-13T07:35:09;94300.63;;;28.13;54.86
28911;BME280;16028;42.642;23.310;2023-07-13T07:37:36;94303.81;;;27.94;54.99
28911;BME280;16028;42.642;23.310;2023-07-13T07:40:03;94295.56;;;27.78;54.45
28911;BME280;16028;42.642;23.310;2023-07-13T07:42:30;94298.66;;;27.70;55.27
28911;BME280;16028;42.642;23.310;2023-07-13T07:44:57;94293.47;;;27.64;54.58
28911;BME280;16028;42.642;23.310;2023-07-13T07:47:25;94292.59;;;27.58;55.48
28911;BME280;16028;42.642;23.310;2023-07-13T07:49:52;94280.66;;;27.44;57.18
28911;BME280;16028;42.642;23.310;2023-07-13T07:52:19;94288.84;;;27.43;55.17
28911;BME280;16028;42.642;23.310;2023-07-13T07:54:46;94284.81;;;27.40;56.43
28911;BME280;16028;42.642;23.310;2023-07-13T07:57:12;94291.44;;;27.71;54.88
28911;BME280;16028;42.642;23.310;2023-07-13T07:59:39;94291.78;;;27.58;56.33
28911;BME280;16028;42.642;23.310;2023-07-13T08:02:08;94282.72;;;27.59;58.79
28911;BME280;16028;42.642;23.310;2023-07-13T08:04:36;94280.22;;;27.52;59.34
28911;BME280;16028;42.642;23.310;2023-07-13T08:07:07;94280.03;;;27.59;58.11
28911;BME280;16028;42.642;23.310;2023-07-13T08:09:34;94271.28;;;27.63;57.35
28911;BME280;16028;42.642;23.310;2023-07-13T08:12:01;94264.22;;;27.74;54.38
28911;BME280;16028;42.642;23.310;2023-07-13T08:14:28;94263.22;;;27.80;54.01
28911;BME280;16028;42.642;23.310;2023-07-13T08:16:55;94261.13;;;27.82;55.36
28911;BME280;16028;42.642;23.310;2023-07-13T08:19:42;94260.94;;;27.89;53.70
28911;BME280;16028;42.642;23.310;2023-07-13T08:22:12;94263.63;;;27.89;55.32
28911;BME280;16028;42.642;23.310;2023-07-13T08:24:39;94257.84;;;28.18;53.51
28911;BME280;16028;42.642;23.310;2023-07-13T08:27:07;94252.13;;;28.31;52.83
28911;BME280;16028;42.642;23.310;2023-07-13T08:29:36;94254.25;;;28.29;52.46
28911;BME280;16028;42.642;23.310;2023-07-13T08:32:04;94251.97;;;28.16;54.60
28911;BME280;16028;42.642;23.310;2023-07-13T08:34:34;94255.75;;;28.20;53.53
28911;BME280;16028;42.642;23.310;2023-07-13T08:37:02;94255.06;;;28.30;51.97
28911;BME280;16028;42.642;23.310;2023-07-13T08:39:30;94249.41;;;28.26;55.61
28911;BME280;16028;42.642;23.310;2023-07-13T08:42:00;94248.78;;;28.19;54.47
28911;BME280;16028;42.642;23.310;2023-07-13T08:44:36;94250.41;;;28.47;51.72
28911;BME280;16028;42.642;23.310;2023-07-13T08:47:07;94239.72;;;28.47;52.40
28911;BME280;16028;42.642;23.310;2023-07-13T08:49:35;94244.75;;;28.44;52.90
28911;BME280;16028;42.642;23.310;2023-07-13T08:52:09;94239.91;;;28.41;52.23
28911;BME280;16028;42.642;23.310;2023-07-13T08:54:43;94241.13;;;28.55;51.84
28911;BME280;16028;42.642;23.310;2023-07-13T08:57:13;94252.66;;;28.55;51.15
28911;BME280;16028;42.642;23.310;2023-07-13T08:59:41;94250.84;;;28.61;50.47
28911;BME280;16028;42.642;23.310;2023-07-13T09:02:23;94263.03;;;29.00;49.17
28911;BME280;16028;42.642;23.310;2023-07-13T09:04:56;94261.81;;;28.86;50.35
28911;BME280;16028;42.642;23.310;2023-07-13T09:07:35;94266.22;;;28.70;50.65
28911;BME280;16028;42.642;23.310;2023-07-13T09:10:14;94279.56;;;28.92;49.24
28911;BME280;16028;42.642;23.310;2023-07-13T09:12:45;94282.81;;;28.94;48.71
28911;BME280;16028;42.642;23.310;2023-07-13T09:15:22;94284.50;;;29.05;48.66
28911;BME280;16028;42.642;23.310;2023-07-13T09:17:51;94290.06;;;28.99;48.99
28911;BME280;16028;42.642;23.310;2023-07-13T09:20:25;94291.28;;;29.13;46.61
28911;BME280;16028;42.642;23.310;2023-07-13T09:22:55;94286.44;;;29.10;47.28
28911;BME280;16028;42.642;23.310;2023-07-13T09:25:27;94287.13;;;29.27;45.91
28911;BME280;16028;42.642;23.310;2023-07-13T09:27:58;94295.72;;;29.61;45.68
28911;BME280;16028;42.642;23.310;2023-07-13T09:30:33;94290.75;;;29.42;46.56
28911;BME280;16028;42.642;23.310;2023-07-13T09:33:00;94285.72;;;29.51;46.39
28911;BME280;16028;42.642;23.310;2023-07-13T09:35:29;94281.28;;;29.72;47.14
28911;BME280;16028;42.642;23.310;2023-07-13T09:38:10;94279.56;;;29.51;46.78
28911;BME280;16028;42.642;23.310;2023-07-13T09:40:58;94282.41;;;29.39;46.83
28911;BME280;16028;42.642;23.310;2023-07-13T09:43:34;94280.88;;;29.90;45.05
28911;BME280;16028;42.642;23.310;2023-07-13T09:46:01;94275.91;;;30.09;43.97
28911;BME280;16028;42.642;23.310;2023-07-13T09:48:34;94277.44;;;30.00;44.03
28911;BME280;16028;42.642;23.310;2023-07-13T09:51:09;94265.75;;;29.74;45.53
28911;BME280;16028;42.642;23.310;2023-07-13T09:53:42;94276.72;;;30.14;43.58
28911;BME280;16028;42.642;23.310;2023-07-13T09:56:23;94253.28;;;30.00;44.81
28911;BME280;16028;42.642;23.310;2023-07-13T09:58:51;94246.34;;;29.99;44.73
28911;BME280;16028;42.642;23.310;2023-07-13T10:01:34;94260.03;;;30.02;44.43
28911;BME280;16028;42.642;23.310;2023-07-13T10:04:02;94234.78;;;29.93;45.34
28911;BME280;16028;42.642;23.310;2023-07-13T10:06:38;94248.31;;;30.28;42.72
28911;BME280;16028;42.642;23.310;2023-07-13T10:09:08;94220.38;;;30.19;46.29
28911;BME280;16028;42.642;23.310;2023-07-13T10:11:37;94213.44;;;30.38;46.40
28911;BME280;16028;42.642;23.310;2023-07-13T10:14:11;94212.13;;;30.41;47.12
28911;BME280;16028;42.642;23.310;2023-07-13T10:16:43;94238.22;;;30.51;43.60
28911;BME280;16028;42.642;23.310;2023-07-13T10:19:21;94211.09;;;30.47;47.20
28911;BME280;16028;42.642;23.310;2023-07-13T10:21:54;94226.44;;;30.67;43.61
28911;BME280;16028;42.642;23.310;2023-07-13T10:24:25;94234.53;;;30.82;42.60
28911;BME280;16028;42.642;23.310;2023-07-13T10:26:56;94211.66;;;30.74;45.57
28911;BME280;16028;42.642;23.310;2023-07-13T10:29:26;94223.78;;;30.82;44.14
28911;BME280;16028;42.642;23.310;2023-07-13T10:31:53;94234.28;;;31.09;41.83
28911;BME280;16028;42.642;23.310;2023-07-13T10:34:22;94227.06;;;31.14;41.98
28911;BME280;16028;42.642;23.310;2023-07-13T10:36:51;94226.78;;;31.16;41.88
28911;BME280;16028;42.642;23.310;2023-07-13T10:39:20;94224.59;;;31.48;40.97
28911;BME280;16028;42.642;23.310;2023-07-13T10:41:53;94216.28;;;31.39;41.35
28911;BME280;16028;42.642;23.310;2023-07-13T10:44:23;94209.31;;;31.23;40.42
28911;BME280;16028;42.642;23.310;2023-07-13T10:46:55;94235.38;;;31.33;38.32
28911;BME280;16028;42.642;23.310;2023-07-13T10:49:26;94263.63;;;31.71;34.46
28911;BME280;16028;42.642;23.310;2023-07-13T10:51:54;94255.53;;;31.66;34.40
28911;BME280;16028;42.642;23.310;2023-07-13T10:54:22;94271.63;;;31.91;32.95
28911;BME280;16028;42.642;23.310;2023-07-13T10:57:14;94232.09;;;31.81;36.13
28911;BME280;16028;42.642;23.310;2023-07-13T10:59:43;94254.59;;;32.21;32.61
28911;BME280;16028;42.642;23.310;2023-07-13T11:02:17;94218.53;;;32.17;36.47
28911;BME280;16028;42.642;23.310;2023-07-13T11:04:48;94219.84;;;32.24;35.12
28911;BME280;16028;42.642;23.310;2023-07-13T11:07:20;94249.06;;;32.61;32.02
28911;BME280;16028;42.642;23.310;2023-07-13T11:09:50;94236.88;;;32.69;33.62
28911;BME280;16028;42.642;23.310;2023-07-13T11:15:12;94225.59;;;32.62;33.40
28911;BME280;16028;42.642;23.310;2023-07-13T11:17:49;94246.78;;;32.83;31.21
28911;BME280;16028;42.642;23.310;2023-07-13T11:20:31;94228.38;;;32.95;31.61
28911;BME280;16028;42.642;23.310;2023-07-13T11:23:29;94218.03;;;33.08;32.48
28911;BME280;16028;42.642;23.310;2023-07-13T11:25:56;94233.50;;;33.31;30.99
28911;BME280;16028;42.642;23.310;2023-07-13T11:28:29;94234.19;;;33.46;30.50
28911;BME280;16028;42.642;23.310;2023-07-13T11:31:14;94229.94;;;33.40;30.29
28911;BME280;16028;42.642;23.310;2023-07-13T11:34:02;94197.28;;;33.03;34.93
28911;BME280;16028;42.642;23.310;2023-07-13T11:36:37;94216.34;;;33.17;31.68
28911;BME280;16028;42.642;23.310;2023-07-13T11:39:16;94213.91;;;33.20;32.25
28911;BME280;16028;42.642;23.310;2023-07-13T11:41:45;94212.13;;;33.39;31.45
28911;BME280;16028;42.642;23.310;2023-07-13T11:44:16;94208.59;;;33.39;31.20
28911;BME280;16028;42.642;23.310;2023-07-13T11:46:47;94214.41;;;33.51;30.90
28911;BME280;16028;42.642;23.310;2023-07-13T11:49:17;94205.06;;;33.43;31.51
28911;BME280;16028;42.642;23.310;2023-07-13T11:51:44;94204.03;;;33.68;31.40
28911;BME280;16028;42.642;23.310;2023-07-13T11:54:22;94203.19;;;33.73;30.68
28911;BME280;16028;42.642;23.310;2023-07-13T11:56:50;94210.81;;;33.89;28.89
28911;BME280;16028;42.642;23.310;2023-07-13T11:59:18;94202.72;;;33.89;30.48
28911;BME280;16028;42.642;23.310;2023-07-13T12:01:51;94205.38;;;33.94;30.65
28911;BME280;16028;42.642;23.310;2023-07-13T12:04:23;94188.72;;;33.87;31.34
28911;BME280;16028;42.642;23.310;2023-07-13T12:06:56;94149.25;;;33.68;34.87
28911;BME280;16028;42.642;23.310;2023-07-13T12:09:27;94170.88;;;34.10;30.91
28911;BME280;16028;42.642;23.310;2023-07-13T12:11:56;94162.97;;;33.95;33.10
28911;BME280;16028;42.642;23.310;2023-07-13T12:14:25;94160.31;;;33.90;31.98
28911;BME280;16028;42.642;23.310;2023-07-13T12:16:52;94172.03;;;34.04;31.43
28911;BME280;16028;42.642;23.310;2023-07-13T12:19:22;94170.66;;;33.83;31.63
28911;BME280;16028;42.642;23.310;2023-07-13T12:21:50;94117.22;;;33.80;36.33
28911;BME280;16028;42.642;23.310;2023-07-13T12:24:20;94088.91;;;34.01;38.71
28911;BME280;16028;42.642;23.310;2023-07-13T12:26:51;94100.53;;;34.20;36.32
28911;BME280;16028;42.642;23.310;2023-07-13T12:29:18;94097.88;;;34.34;35.69
28911;BME280;16028;42.642;23.310;2023-07-13T12:31:48;94099.88;;;34.47;35.00
28911;BME280;16028;42.642;23.310;2023-07-13T12:34:16;94103.97;;;34.44;35.70
28911;BME280;16028;42.642;23.310;2023-07-13T12:36:50;94093.00;;;34.54;36.37
28911;BME280;16028;42.642;23.310;2023-07-13T12:39:20;94086.56;;;34.69;37.54
28911;BME280;16028;42.642;23.310;2023-07-13T12:41:48;94109.88;;;34.84;34.47
28911;BME280;16028;42.642;23.310;2023-07-13T12:44:17;94105.44;;;34.88;34.38
28911;BME280;16028;42.642;23.310;2023-07-13T12:46:57;94098.34;;;34.92;36.23
28911;BME280;16028;42.642;23.310;2023-07-13T12:49:27;94083.75;;;34.93;36.89
28911;BME280;16028;42.642;23.310;2023-07-13T12:51:59;94092.88;;;34.97;34.96
28911;BME280;16028;42.642;23.310;2023-07-13T12:54:28;94082.38;;;35.09;36.41
28911;BME280;16028;42.642;23.310;2023-07-13T12:56:56;94067.47;;;35.12;36.94
28911;BME280;16028;42.642;23.310;2023-07-13T12:59:27;94089.56;;;35.32;34.21
28911;BME280;16028;42.642;23.310;2023-07-13T13:01:57;94062.69;;;35.36;36.61
28911;BME280;16028;42.642;23.310;2023-07-13T13:04:25;94082.22;;;35.33;34.45
28911;BME280;16028;42.642;23.310;2023-07-13T13:07:01;94083.13;;;35.28;34.88
28911;BME280;16028;42.642;23.310;2023-07-13T13:09:28;94108.59;;;35.27;32.25
28911;BME280;16028;42.642;23.310;2023-07-13T13:11:55;94103.69;;;35.29;30.91
28911;BME280;16028;42.642;23.310;2023-07-13T13:14:22;94103.75;;;35.11;31.58
28911;BME280;16028;42.642;23.310;2023-07-13T13:16:50;94052.00;;;34.98;37.83
28911;BME280;16028;42.642;23.310;2023-07-13T13:19:21;94060.22;;;34.93;36.00
28911;BME280;16028;42.642;23.310;2023-07-13T13:21:49;94039.16;;;35.04;37.81
28911;BME280;16028;42.642;23.310;2023-07-13T13:24:20;94039.53;;;35.16;36.82